Time;durP1;ratioP1;P1;durP2;ratioP2;P2;SDS_P1;SDS_P2;PMS_P1;PMS_P2;Temp;Humidity;BMP_temperature;BMP_pressure;BME280_temperature;BME280_humidity;BME280_pressure;Samples;Min_cycle;Max_cycle;Signal;HPM_P1;HPM_P2
2023/06/28 02:00:40;;;;;;;3.17;2.62;;;;;;;;;;4968387;27;20098;-76
2023/06/28 02:03:06;;;;;;;9.02;2.62;;;;;;;;;;4356932;32;20399;-78
2023/06/28 02:05:32;;;;;;;4.03;2.40;;;;;;;;;;4358706;32;20039;-79
2023/06/28 02:07:58;;;;;;;12.60;2.87;;;;;;;;;;4329990;33;20088;-80
2023/06/28 02:10:25;;;;;;;7.25;2.37;;;;;;;;;;4328659;33;20077;-80
2023/06/28 02:12:51;;;;;;;6.12;3.55;;;;;;;;;;4339115;33;20058;-76
2023/06/28 02:15:18;;;;;;;5.10;2.90;;;;;;;;;;4341444;33;20059;-79
2023/06/28 02:17:45;;;;;;;4.07;2.50;;;;;;;;;;4341492;33;20081;-79
2023/06/28 02:20:12;;;;;;;8.75;2.80;;;;;;;;;;4340961;33;20032;-79
2023/06/28 02:22:39;;;;;;;3.65;2.67;;;;;;;;;;4341761;33;20057;-79
2023/06/28 02:25:06;;;;;;;7.90;2.35;;;;;;;;;;4338162;33;20469;-78
2023/06/28 02:27:32;;;;;;;5.45;2.55;;;;;;;;;;4333952;33;20513;-77
2023/06/28 02:29:58;;;;;;;6.68;2.70;;;;;;;;;;4337203;33;20040;-78
2023/06/28 02:32:25;;;;;;;7.35;3.37;;;;;;;;;;4341223;33;20057;-80
2023/06/28 02:34:51;;;;;;;2.20;2.03;;;;;;;;;;4341768;33;20032;-80
2023/06/28 02:37:17;;;;;;;3.65;2.62;;;;;;;;;;4315570;33;20459;-76
2023/06/28 02:39:43;;;;;;;12.07;2.40;;;;;;;;;;4323688;33;20139;-80
2023/06/28 02:42:09;;;;;;;3.08;2.30;;;;;;;;;;4323229;33;20438;-78
2023/06/28 02:44:35;;;;;;;4.50;2.65;;;;;;;;;;4322838;33;20066;-79
2023/06/28 02:47:02;;;;;;;4.65;2.80;;;;;;;;;;4324323;33;20063;-80
2023/06/28 02:49:28;;;;;;;3.03;2.70;;;;;;;;;;4321243;33;20065;-77
2023/06/28 02:51:55;;;;;;;10.02;2.60;;;;;;;;;;4324061;33;20059;-79
2023/06/28 02:54:21;;;;;;;3.65;3.35;;;;;;;;;;4332999;33;20056;-79
2023/06/28 02:56:47;;;;;;;4.07;2.62;;;;;;;;;;4337818;33;20720;-79
2023/06/28 02:59:14;;;;;;;5.53;2.75;;;;;;;;;;4337435;33;20044;-75
2023/06/28 03:01:41;;;;;;;11.12;2.87;;;;;;;;;;4338032;33;20171;-79
2023/06/28 03:04:07;;;;;;;3.47;2.47;;;;;;;;;;4337743;33;20040;-78
2023/06/28 03:06:34;;;;;;;4.22;2.20;;;;;;;;;;4327859;33;20557;-78
2023/06/28 03:09:00;;;;;;;5.00;2.60;;;;;;;;;;4340651;33;20507;-77
2023/06/28 03:11:27;;;;;;;4.78;2.30;;;;;;;;;;4335416;33;20048;-76
2023/06/28 03:13:53;;;;;;;5.78;2.75;;;;;;;;;;4337174;33;20481;-79
2023/06/28 03:16:21;;;;;;;4.53;2.75;;;;;;;;;;4322685;33;20064;-76
2023/06/28 03:18:47;;;;;;;3.12;2.15;;;;;;;;;;4323927;33;20048;-79
2023/06/28 03:21:14;;;;;;;2.78;2.58;;;;;;;;;;4323704;33;20040;-78
2023/06/28 03:23:47;;;;;;;12.77;2.60;;;;;;;;;;4321712;33;20032;-79
2023/06/28 03:26:15;;;;;;;2.05;1.92;;;;;;;;;;4282333;33;20057;-79
2023/06/28 03:28:41;;;;;;;7.80;2.28;;;;;;;;;;4278945;33;20364;-78
2023/06/28 03:31:07;;;;;;;2.85;2.45;;;;;;;;;;4280084;33;20500;-79
2023/06/28 03:33:34;;;;;;;3.42;2.50;;;;;;;;;;4264294;33;20492;-80
2023/06/28 03:36:00;;;;;;;3.55;2.33;;;;;;;;;;4262339;33;20118;-79
2023/06/28 03:38:26;;;;;;;7.18;2.60;;;;;;;;;;4265852;33;20078;-79
2023/06/28 03:40:52;;;;;;;6.53;2.55;;;;;;;;;;4277292;33;20033;-79
2023/06/28 03:43:19;;;;;;;3.95;2.55;;;;;;;;;;4287445;33;20068;-80
2023/06/28 03:45:45;;;;;;;2.20;2.08;;;;;;;;;;4293585;33;20516;-74
2023/06/28 03:48:11;;;;;;;2.80;2.40;;;;;;;;;;4291529;33;20041;-78
2023/06/28 03:50:38;;;;;;;2.67;2.53;;;;;;;;;;4294206;33;20509;-79
2023/06/28 03:53:04;;;;;;;2.30;2.20;;;;;;;;;;4308873;33;20095;-79
2023/06/28 03:55:30;;;;;;;4.65;2.90;;;;;;;;;;4308478;33;20071;-78
2023/06/28 03:57:56;;;;;;;10.73;2.55;;;;;;;;;;4306570;33;20088;-76
2023/06/28 04:00:23;;;;;;;5.60;2.65;;;;;;;;;;4305200;33;20104;-78
2023/06/28 04:02:49;;;;;;;4.70;2.45;;;;;;;;;;4293060;33;20341;-80
2023/06/28 04:05:15;;;;;;;4.03;2.30;;;;;;;;;;4291038;33;20478;-78
2023/06/28 04:07:41;;;;;;;3.17;2.80;;;;;;;;;;4303960;33;20054;-77
2023/06/28 04:10:08;;;;;;;6.32;2.47;;;;;;;;;;4312806;33;20057;-77
2023/06/28 04:12:34;;;;;;;9.35;2.90;;;;;;;;;;4312321;33;20044;-78
2023/06/28 04:15:01;;;;;;;2.70;2.45;;;;;;;;;;4322019;33;20407;-78
2023/06/28 04:17:27;;;;;;;12.20;2.72;;;;;;;;;;4323440;33;20844;-78
2023/06/28 04:19:53;;;;;;;3.53;2.72;;;;;;;;;;4343816;33;20385;-76
2023/06/28 04:22:19;;;;;;;6.57;2.55;;;;;;;;;;4350729;32;20062;-78
2023/06/28 04:24:46;;;;;;;10.23;3.33;;;;;;;;;;4350308;32;20196;-81
2023/06/28 04:27:12;;;;;;;6.05;3.00;;;;;;;;;;4342703;32;20037;-78
2023/06/28 04:29:38;;;;;;;7.37;3.78;;;;;;;;;;4338736;33;20080;-77
2023/06/28 04:32:19;;;;;;;3.60;3.05;;;;;;;;;;4338313;33;20073;-75
2023/06/28 04:34:46;;;;;;;8.68;3.33;;;;;;;;;;4340289;33;20041;-77
2023/06/28 04:37:12;;;;;;;6.57;3.65;;;;;;;;;;4332442;33;20044;-76
2023/06/28 04:39:38;;;;;;;5.70;2.65;;;;;;;;;;4334227;33;20094;-77
2023/06/28 04:42:04;;;;;;;3.17;2.85;;;;;;;;;;4336410;33;20048;-81
2023/06/28 04:44:34;;;;;;;8.10;3.62;;;;;;;;;;4336105;33;20052;-78
2023/06/28 04:47:00;;;;;;;3.65;3.10;;;;;;;;;;4337400;33;20058;-79
2023/06/28 04:49:26;;;;;;;6.55;3.67;;;;;;;;;;4337224;33;20069;-77
2023/06/28 04:51:54;;;;;;;6.57;3.67;;;;;;;;;;4336915;33;20044;-80
2023/06/28 04:54:20;;;;;;;5.03;2.62;;;;;;;;;;4304331;33;20074;-78
2023/06/28 04:56:46;;;;;;;8.40;3.45;;;;;;;;;;4307819;33;20112;-80
2023/06/28 04:59:12;;;;;;;7.22;2.55;;;;;;;;;;4305839;33;20476;-79
2023/06/28 05:01:41;;;;;;;3.47;3.17;;;;;;;;;;4276847;33;20160;-79
2023/06/28 05:04:07;;;;;;;5.85;2.90;;;;;;;;;;4249669;33;20457;-79
2023/06/28 05:06:36;;;;;;;2.67;2.37;;;;;;;;;;4246218;33;20046;-76
2023/06/28 05:09:09;;;;;;;4.95;3.17;;;;;;;;;;4260761;33;20085;-79
2023/06/28 05:11:35;;;;;;;4.55;2.25;;;;;;;;;;4264706;33;20384;-78
2023/06/28 05:14:04;;;;;;;7.00;2.87;;;;;;;;;;4254480;33;20065;-78
2023/06/28 05:16:30;;;;;;;4.47;2.92;;;;;;;;;;4254694;33;20068;-78
2023/06/28 05:19:00;;;;;;;4.18;2.65;;;;;;;;;;4256288;33;20075;-78
2023/06/28 05:21:26;;;;;;;6.97;3.08;;;;;;;;;;4263710;33;20065;-78
2023/06/28 05:23:52;;;;;;;5.32;2.20;;;;;;;;;;4260410;33;20054;-78
2023/06/28 05:26:18;;;;;;;3.65;2.25;;;;;;;;;;4265699;33;20431;-79
2023/06/28 05:28:44;;;;;;;5.85;2.33;;;;;;;;;;4270828;33;20049;-78
2023/06/28 05:31:10;;;;;;;3.08;2.15;;;;;;;;;;4276607;33;20072;-76
2023/06/28 05:33:40;;;;;;;2.95;2.00;;;;;;;;;;4318168;33;20531;-79
2023/06/28 05:36:07;;;;;;;15.40;2.33;;;;;;;;;;4372070;32;20083;-76
2023/06/28 05:38:33;;;;;;;3.20;2.40;;;;;;;;;;4360282;33;20107;-78
2023/06/28 05:41:13;;;;;;;2.95;2.28;;;;;;;;;;4348783;33;20043;-79
2023/06/28 05:43:41;;;;;;;8.07;2.00;;;;;;;;;;4348772;33;20043;-76
2023/06/28 05:46:07;;;;;;;5.43;1.90;;;;;;;;;;4349852;33;20062;-76
2023/06/28 05:48:33;;;;;;;4.37;1.80;;;;;;;;;;4337203;33;20047;-75
2023/06/28 05:50:59;;;;;;;2.92;1.60;;;;;;;;;;4350796;33;20220;-76
2023/06/28 05:53:26;;;;;;;3.15;2.10;;;;;;;;;;4351447;33;20056;-76
2023/06/28 05:55:51;;;;;;;9.43;2.00;;;;;;;;;;4351451;33;20099;-76
2023/06/28 05:58:20;;;;;;;4.32;1.80;;;;;;;;;;4351174;33;20851;-76
2023/06/28 06:00:47;;;;;;;2.53;2.33;;;;;;;;;;4304133;33;20126;-75
2023/06/28 06:03:13;;;;;;;8.02;1.60;;;;;;;;;;4316317;33;20375;-78
2023/06/28 06:05:39;;;;;;;6.93;1.98;;;;;;;;;;4307222;33;20075;-77
2023/06/28 06:08:06;;;;;;;6.18;1.80;;;;;;;;;;4273496;33;20360;-77
2023/06/28 06:10:32;;;;;;;7.12;2.03;;;;;;;;;;4270466;33;20235;-76
2023/06/28 06:12:59;;;;;;;5.47;1.70;;;;;;;;;;4268198;33;20118;-76
2023/06/28 06:15:24;;;;;;;10.68;1.55;;;;;;;;;;4263640;33;21098;-75
2023/06/28 06:17:51;;;;;;;9.60;1.87;;;;;;;;;;4280091;33;20410;-76
2023/06/28 06:20:17;;;;;;;1.62;1.52;;;;;;;;;;4279380;33;20067;-76
2023/06/28 06:22:43;;;;;;;3.83;2.00;;;;;;;;;;4265156;33;20486;-76
2023/06/28 06:25:10;;;;;;;7.10;1.87;;;;;;;;;;4264613;33;20076;-76
2023/06/28 06:27:36;;;;;;;6.70;2.10;;;;;;;;;;4266506;33;20045;-76
2023/06/28 06:30:03;;;;;;;7.55;1.42;;;;;;;;;;4266254;33;20037;-76
2023/06/28 06:32:29;;;;;;;6.80;1.60;;;;;;;;;;4287982;33;20053;-77
2023/06/28 06:34:58;;;;;;;5.55;1.65;;;;;;;;;;4295278;33;20090;-77
2023/06/28 06:37:24;;;;;;;4.53;1.65;;;;;;;;;;4314953;33;20048;-75
2023/06/28 06:39:51;;;;;;;4.55;1.48;;;;;;;;;;4332723;33;20047;-76
2023/06/28 06:42:17;;;;;;;9.35;1.70;;;;;;;;;;4337503;33;20057;-76
2023/06/28 06:44:43;;;;;;;3.28;1.80;;;;;;;;;;4337776;33;20485;-75
2023/06/28 06:47:09;;;;;;;3.08;1.67;;;;;;;;;;4338512;33;20441;-76
2023/06/28 06:49:35;;;;;;;8.60;1.87;;;;;;;;;;4298476;33;20062;-75
2023/06/28 06:52:02;;;;;;;17.50;2.03;;;;;;;;;;4293140;33;20049;-76
2023/06/28 06:54:29;;;;;;;2.75;1.65;;;;;;;;;;4317282;33;20082;-76
2023/06/28 06:56:56;;;;;;;12.15;2.05;;;;;;;;;;4324210;33;20060;-76
2023/06/28 06:59:29;;;;;;;7.18;1.92;;;;;;;;;;4322986;33;20432;-74
2023/06/28 07:01:55;;;;;;;9.70;2.45;;;;;;;;;;4321272;33;20454;-75
2023/06/28 07:04:21;;;;;;;4.30;1.35;;;;;;;;;;4322883;33;20094;-74
2023/06/28 07:06:48;;;;;;;9.15;1.95;;;;;;;;;;4323330;33;20064;-74
2023/06/28 07:09:14;;;;;;;8.85;1.80;;;;;;;;;;4322354;33;20036;-74
2023/06/28 07:11:41;;;;;;;7.62;1.73;;;;;;;;;;4321116;33;20832;-73
2023/06/28 07:14:07;;;;;;;3.97;1.45;;;;;;;;;;4322977;33;21163;-75
2023/06/28 07:16:34;;;;;;;2.87;1.10;;;;;;;;;;4322913;33;20063;-75
2023/06/28 07:19:00;;;;;;;15.60;2.72;;;;;;;;;;4322694;33;20064;-76
2023/06/28 07:21:26;;;;;;;5.72;1.40;;;;;;;;;;4348343;32;20102;-74
2023/06/28 07:23:54;;;;;;;9.07;1.60;;;;;;;;;;4354376;32;20401;-75
2023/06/28 07:26:21;;;;;;;4.87;2.47;;;;;;;;;;4350534;32;20102;-75
2023/06/28 07:28:47;;;;;;;5.68;1.33;;;;;;;;;;4351924;32;20040;-74
2023/06/28 07:31:13;;;;;;;4.93;1.55;;;;;;;;;;4317765;33;20092;-75
2023/06/28 07:33:40;;;;;;;5.72;1.25;;;;;;;;;;4320031;33;20541;-74
2023/06/28 07:36:06;;;;;;;11.23;1.67;;;;;;;;;;4319362;33;20058;-76
2023/06/28 07:38:32;;;;;;;6.30;1.50;;;;;;;;;;4321613;33;20052;-75
2023/06/28 07:40:59;;;;;;;8.23;1.30;;;;;;;;;;4319828;33;20484;-77
2023/06/28 07:43:25;;;;;;;8.60;1.92;;;;;;;;;;4319289;33;20086;-77
2023/06/28 07:45:52;;;;;;;4.22;1.23;;;;;;;;;;4320054;33;20066;-73
2023/06/28 07:48:18;;;;;;;6.78;1.23;;;;;;;;;;4322049;33;20074;-77
2023/06/28 07:50:45;;;;;;;8.18;1.98;;;;;;;;;;4317505;33;20387;-78
2023/06/28 07:53:11;;;;;;;4.72;1.95;;;;;;;;;;4317957;33;20351;-75
2023/06/28 07:55:37;;;;;;;11.12;1.85;;;;;;;;;;4314354;33;20060;-76
2023/06/28 07:58:03;;;;;;;3.50;1.23;;;;;;;;;;4317815;33;20125;-74
2023/06/28 08:00:31;;;;;;;8.57;1.75;;;;;;;;;;4314584;33;20079;-75
2023/06/28 08:02:58;;;;;;;4.37;1.40;;;;;;;;;;4340558;32;20070;-75
2023/06/28 08:05:25;;;;;;;7.30;1.37;;;;;;;;;;4350230;32;20069;-77
2023/06/28 08:07:57;;;;;;;6.03;1.20;;;;;;;;;;4352460;32;20043;-75
2023/06/28 08:10:23;;;;;;;13.05;3.85;;;;;;;;;;4349436;32;20381;-75
2023/06/28 08:12:50;;;;;;;8.55;1.50;;;;;;;;;;4351315;32;20688;-75
2023/06/28 08:15:18;;;;;;;4.47;1.80;;;;;;;;;;4352635;32;20069;-76
2023/06/28 08:17:44;;;;;;;4.57;1.95;;;;;;;;;;4354056;32;20039;-75
2023/06/28 08:20:11;;;;;;;4.95;1.77;;;;;;;;;;4350277;32;20048;-76
2023/06/28 08:22:36;;;;;;;10.52;1.70;;;;;;;;;;4350105;32;20131;-75
2023/06/28 08:25:03;;;;;;;4.30;1.42;;;;;;;;;;4340886;32;20449;-74
2023/06/28 08:27:29;;;;;;;3.87;0.90;;;;;;;;;;4341091;32;20062;-75
2023/06/28 08:29:56;;;;;;;5.80;1.45;;;;;;;;;;4345482;32;20931;-75
2023/06/28 08:32:22;;;;;;;2.53;0.95;;;;;;;;;;4349784;32;20031;-74
2023/06/28 08:34:49;;;;;;;5.43;1.62;;;;;;;;;;4351896;32;20953;-75
2023/06/28 08:37:16;;;;;;;5.85;1.20;;;;;;;;;;4350953;32;20052;-76
2023/06/28 08:39:42;;;;;;;5.95;1.90;;;;;;;;;;4349631;32;20056;-76
2023/06/28 08:42:08;;;;;;;7.57;1.52;;;;;;;;;;4351690;32;20222;-75
2023/06/28 08:44:36;;;;;;;7.07;1.40;;;;;;;;;;4349468;32;20576;-74
2023/06/28 08:47:03;;;;;;;5.00;1.40;;;;;;;;;;4341180;32;20193;-76
2023/06/28 08:49:30;;;;;;;1.37;1.10;;;;;;;;;;4345223;32;20051;-75
2023/06/28 08:51:57;;;;;;;10.13;1.30;;;;;;;;;;4348509;32;20525;-74
2023/06/28 08:54:27;;;;;;;5.90;1.25;;;;;;;;;;4346794;32;20059;-74
2023/06/28 08:56:56;;;;;;;5.22;1.12;;;;;;;;;;4341993;32;20061;-79
2023/06/28 08:59:22;;;;;;;6.82;1.73;;;;;;;;;;4351736;32;20405;-76
2023/06/28 09:01:50;;;;;;;6.43;1.45;;;;;;;;;;4342878;32;20119;-75
2023/06/28 09:04:17;;;;;;;7.95;3.92;;;;;;;;;;4343076;33;20073;-76
2023/06/28 09:06:44;;;;;;;5.20;1.85;;;;;;;;;;4351050;32;20450;-77
2023/06/28 09:09:11;;;;;;;8.30;2.40;;;;;;;;;;4350855;32;20107;-83
2023/06/28 09:11:38;;;;;;;5.80;1.42;;;;;;;;;;4352220;32;20047;-75
2023/06/28 09:14:04;;;;;;;2.12;1.42;;;;;;;;;;4349456;32;20447;-75
2023/06/28 09:16:30;;;;;;;2.58;1.60;;;;;;;;;;4353223;32;20073;-75
2023/06/28 09:18:57;;;;;;;5.97;1.95;;;;;;;;;;4349877;32;20055;-74
2023/06/28 09:21:26;;;;;;;5.75;1.30;;;;;;;;;;4340840;32;20630;-75
2023/06/28 09:23:52;;;;;;;5.43;1.62;;;;;;;;;;4348034;32;20074;-76
2023/06/28 09:26:19;;;;;;;6.18;1.20;;;;;;;;;;4348149;32;20222;-75
2023/06/28 09:28:45;;;;;;;8.50;1.70;;;;;;;;;;4345596;32;20475;-74
2023/06/28 09:31:17;;;;;;;11.35;1.80;;;;;;;;;;4346484;33;20087;-75
2023/06/28 09:33:43;;;;;;;4.93;1.52;;;;;;;;;;4347193;33;20051;-76
2023/06/28 09:36:09;;;;;;;5.00;1.12;;;;;;;;;;4338227;33;20090;-75
2023/06/28 09:38:42;;;;;;;4.55;1.20;;;;;;;;;;4334034;33;20462;-75
2023/06/28 09:41:08;;;;;;;10.43;1.45;;;;;;;;;;4337973;33;20031;-73
2023/06/28 09:43:35;;;;;;;10.07;1.20;;;;;;;;;;4343376;33;20060;-76
2023/06/28 09:46:11;;;;;;;2.95;1.10;;;;;;;;;;4344934;33;20495;-74
2023/06/28 09:48:41;;;;;;;5.03;1.85;;;;;;;;;;4322281;33;20052;-74
2023/06/28 09:51:08;;;;;;;3.12;1.00;;;;;;;;;;4323105;33;20052;-75
2023/06/28 09:53:34;;;;;;;4.43;1.23;;;;;;;;;;4334560;33;20409;-74
2023/06/28 09:56:00;;;;;;;2.67;1.20;;;;;;;;;;4314966;33;20057;-75
2023/06/28 09:58:27;;;;;;;9.00;1.17;;;;;;;;;;4307704;33;20486;-75
2023/06/28 10:00:53;;;;;;;3.95;1.42;;;;;;;;;;4308025;33;20057;-77
2023/06/28 10:03:23;;;;;;;5.12;1.55;;;;;;;;;;4308216;33;20234;-73
2023/06/28 10:05:51;;;;;;;4.72;1.27;;;;;;;;;;4308986;33;20072;-75
2023/06/28 10:08:17;;;;;;;10.55;1.73;;;;;;;;;;4319061;33;20395;-74
2023/06/28 10:10:44;;;;;;;7.65;1.15;;;;;;;;;;4312755;33;20086;-74
2023/06/28 10:13:18;;;;;;;4.37;1.55;;;;;;;;;;4310923;33;20057;-75
2023/06/28 10:15:50;;;;;;;4.32;1.25;;;;;;;;;;4320535;33;20070;-74
2023/06/28 10:18:16;;;;;;;2.40;1.10;;;;;;;;;;4282307;33;20065;-75
2023/06/28 10:20:43;;;;;;;2.80;1.30;;;;;;;;;;4304639;33;20467;-75
2023/06/28 10:23:11;;;;;;;4.22;1.30;;;;;;;;;;4303928;33;20662;-74
2023/06/28 10:25:39;;;;;;;1.35;1.05;;;;;;;;;;4305074;33;20062;-76
2023/06/28 10:28:05;;;;;;;1.30;1.20;;;;;;;;;;4321578;33;20350;-76
2023/06/28 10:30:32;;;;;;;3.70;1.40;;;;;;;;;;4322597;33;20052;-75
2023/06/28 10:32:59;;;;;;;6.00;1.33;;;;;;;;;;4323582;33;20048;-75
2023/06/28 10:35:25;;;;;;;1.58;1.25;;;;;;;;;;4322743;33;20040;-74
2023/06/28 10:37:55;;;;;;;4.40;1.35;;;;;;;;;;4321771;33;20070;-74
2023/06/28 10:40:21;;;;;;;7.30;2.25;;;;;;;;;;4277453;33;20042;-74
2023/06/28 10:42:47;;;;;;;2.62;1.00;;;;;;;;;;4244536;33;20053;-73
2023/06/28 10:45:13;;;;;;;5.03;1.55;;;;;;;;;;4249717;33;20054;-72
2023/06/28 10:47:55;;;;;;;2.70;1.60;;;;;;;;;;4248928;33;20049;-73
2023/06/28 10:50:22;;;;;;;6.32;1.30;;;;;;;;;;4271187;33;20421;-73
2023/06/28 10:52:49;;;;;;;3.28;1.58;;;;;;;;;;4247786;33;20076;-73
2023/06/28 10:55:18;;;;;;;5.53;2.10;;;;;;;;;;4249259;33;20078;-74
2023/06/28 10:57:45;;;;;;;4.12;1.60;;;;;;;;;;4248271;33;20384;-75
2023/06/28 11:03:18;;;;;;;17.45;1.65;;;;;;;;;;4241856;33;20109;-75
2023/06/28 11:05:45;;;;;;;8.70;1.73;;;;;;;;;;4247462;33;20050;-74
2023/06/28 11:08:12;;;;;;;10.07;2.40;;;;;;;;;;4248286;33;20088;-75
2023/06/28 11:10:39;;;;;;;10.32;2.35;;;;;;;;;;4252822;33;20437;-75
2023/06/28 11:13:12;;;;;;;3.90;1.40;;;;;;;;;;4280013;33;20446;-75
2023/06/28 11:15:47;;;;;;;4.97;1.58;;;;;;;;;;4290169;33;20052;-75
2023/06/28 11:18:18;;;;;;;8.60;1.40;;;;;;;;;;4292757;33;20056;-75
2023/06/28 11:20:49;;;;;;;9.40;1.80;;;;;;;;;;4291368;33;20057;-74
2023/06/28 11:23:42;;;;;;;5.17;1.17;;;;;;;;;;4298651;33;20074;-74
2023/06/28 11:26:12;;;;;;;4.45;1.83;;;;;;;;;;4304082;33;20641;-75
2023/06/28 11:28:46;;;;;;;12.32;2.00;;;;;;;;;;4315771;33;20095;-74
2023/06/28 11:31:13;;;;;;;3.10;1.20;;;;;;;;;;4316043;33;20089;-75
2023/06/28 11:33:41;;;;;;;6.40;1.73;;;;;;;;;;4309503;33;20056;-75
2023/06/28 11:36:08;;;;;;;5.82;1.30;;;;;;;;;;4315177;33;20049;-75
2023/06/28 11:38:34;;;;;;;3.17;1.40;;;;;;;;;;4293389;33;20223;-76
2023/06/28 11:41:02;;;;;;;4.05;1.37;;;;;;;;;;4289251;33;20096;-74
2023/06/28 11:43:28;;;;;;;3.87;1.20;;;;;;;;;;4299426;33;20106;-74
2023/06/28 11:45:54;;;;;;;4.03;1.15;;;;;;;;;;4282025;33;20049;-75
2023/06/28 11:48:21;;;;;;;6.07;1.45;;;;;;;;;;4293950;33;20041;-75
2023/06/28 11:50:57;;;;;;;12.73;1.23;;;;;;;;;;4291907;33;20375;-74
2023/06/28 11:53:25;;;;;;;4.50;2.20;;;;;;;;;;4293061;33;20079;-75
2023/06/28 11:55:52;;;;;;;3.80;1.10;;;;;;;;;;4262646;33;20045;-76
2023/06/28 11:58:28;;;;;;;6.47;1.17;;;;;;;;;;4275953;33;20124;-76
2023/06/28 12:00:55;;;;;;;9.50;1.37;;;;;;;;;;4273678;33;20364;-76
2023/06/28 12:03:32;;;;;;;5.65;1.12;;;;;;;;;;4264189;33;20124;-75
2023/06/28 12:06:00;;;;;;;8.32;1.60;;;;;;;;;;4262622;33;20079;-76
2023/06/28 12:08:34;;;;;;;3.83;1.15;;;;;;;;;;4264778;33;20030;-76
2023/06/28 12:11:12;;;;;;;2.58;1.37;;;;;;;;;;4262467;33;20379;-76
2023/06/28 12:13:39;;;;;;;3.47;1.10;;;;;;;;;;4259491;33;20065;-76
2023/06/28 12:16:13;;;;;;;1.60;1.27;;;;;;;;;;4272889;33;20061;-76
2023/06/28 12:18:53;;;;;;;9.02;1.17;;;;;;;;;;4262058;33;20059;-77
2023/06/28 12:21:21;;;;;;;1.17;0.98;;;;;;;;;;4277823;33;20111;-76
2023/06/28 12:23:48;;;;;;;1.00;1.00;;;;;;;;;;4301131;33;20029;-76
2023/06/28 12:26:14;;;;;;;3.85;1.35;;;;;;;;;;4292273;33;20057;-75
2023/06/28 12:28:40;;;;;;;4.05;1.40;;;;;;;;;;4290445;33;20079;-77
2023/06/28 12:31:09;;;;;;;2.85;1.12;;;;;;;;;;4297097;33;20150;-76
2023/06/28 12:33:35;;;;;;;1.50;1.30;;;;;;;;;;4322819;33;20057;-76
2023/06/28 12:36:01;;;;;;;5.00;1.40;;;;;;;;;;4335320;33;20056;-76
2023/06/28 12:38:27;;;;;;;4.57;1.58;;;;;;;;;;4322675;33;20040;-75
2023/06/28 12:40:58;;;;;;;4.97;2.08;;;;;;;;;;4323938;33;20048;-75
2023/06/28 12:43:25;;;;;;;4.87;1.62;;;;;;;;;;4318622;33;20081;-78
2023/06/28 12:45:55;;;;;;;2.58;1.40;;;;;;;;;;4320478;33;20032;-75
2023/06/28 12:48:22;;;;;;;1.95;1.60;;;;;;;;;;4320121;33;20041;-76
2023/06/28 12:50:50;;;;;;;1.92;1.67;;;;;;;;;;4321899;33;20456;-77
2023/06/28 12:53:16;;;;;;;2.87;1.40;;;;;;;;;;4317534;33;20074;-76
2023/06/28 12:55:43;;;;;;;1.92;1.67;;;;;;;;;;4315524;33;20081;-75
2023/06/28 12:58:09;;;;;;;1.87;1.40;;;;;;;;;;4314427;33;20096;-75
2023/06/28 13:00:36;;;;;;;2.83;1.48;;;;;;;;;;4315271;33;20217;-75
2023/06/28 13:03:02;;;;;;;1.95;1.52;;;;;;;;;;4326938;33;20130;-74
2023/06/28 13:05:29;;;;;;;3.35;1.48;;;;;;;;;;4317345;33;20113;-75
2023/06/28 13:07:55;;;;;;;1.80;1.62;;;;;;;;;;4333605;32;20056;-74
2023/06/28 13:10:21;;;;;;;3.37;1.58;;;;;;;;;;4333291;33;20056;-74
2023/06/28 13:12:47;;;;;;;2.83;1.62;;;;;;;;;;4333856;33;20051;-75
2023/06/28 13:15:14;;;;;;;1.80;1.70;;;;;;;;;;4336174;33;20278;-75
2023/06/28 13:17:40;;;;;;;2.20;2.00;;;;;;;;;;4332786;33;20059;-74
2023/06/28 13:20:07;;;;;;;2.85;1.40;;;;;;;;;;4329539;33;20056;-74
2023/06/28 13:22:33;;;;;;;1.95;1.77;;;;;;;;;;4330890;33;20032;-73
2023/06/28 13:25:00;;;;;;;5.90;2.30;;;;;;;;;;4315587;33;20072;-74
2023/06/28 13:27:25;;;;;;;3.58;3.28;;;;;;;;;;4334218;33;20052;-74
2023/06/28 13:29:52;;;;;;;2.60;1.58;;;;;;;;;;4330996;33;20044;-74
2023/06/28 13:32:18;;;;;;;1.20;1.10;;;;;;;;;;4335954;33;20028;-75
2023/06/28 13:34:44;;;;;;;1.45;1.30;;;;;;;;;;4306130;33;20463;-75
2023/06/28 13:37:11;;;;;;;1.70;1.23;;;;;;;;;;4306246;33;20033;-76
2023/06/28 13:39:37;;;;;;;1.83;1.40;;;;;;;;;;4306818;33;20463;-75
2023/06/28 13:42:03;;;;;;;1.55;1.45;;;;;;;;;;4315014;33;20044;-75
2023/06/28 13:44:29;;;;;;;7.75;1.62;;;;;;;;;;4305523;33;20040;-74
2023/06/28 13:46:55;;;;;;;1.80;1.70;;;;;;;;;;4305029;33;20135;-76
2023/06/28 13:49:21;;;;;;;1.27;1.27;;;;;;;;;;4306722;33;20201;-76
2023/06/28 13:51:48;;;;;;;1.40;1.40;;;;;;;;;;4307097;33;20041;-76
2023/06/28 13:54:14;;;;;;;1.10;1.08;;;;;;;;;;4305520;33;20078;-76
2023/06/28 13:56:40;;;;;;;1.40;1.40;;;;;;;;;;4307047;33;20070;-76
2023/06/28 13:59:22;;;;;;;6.80;2.28;;;;;;;;;;4304157;33;20061;-74
2023/06/28 14:01:50;;;;;;;1.70;1.60;;;;;;;;;;4306067;33;20059;-79
2023/06/28 14:04:16;;;;;;;1.33;1.33;;;;;;;;;;4298731;33;20078;-77
2023/06/28 14:06:42;;;;;;;1.23;1.23;;;;;;;;;;4295963;33;20037;-77
2023/06/28 14:09:08;;;;;;;1.37;1.27;;;;;;;;;;4297188;33;20345;-78
2023/06/28 14:11:34;;;;;;;1.12;0.98;;;;;;;;;;4281443;33;20048;-77
2023/06/28 14:14:01;;;;;;;3.95;1.33;;;;;;;;;;4290895;33;20181;-75
2023/06/28 14:16:27;;;;;;;1.15;1.15;;;;;;;;;;4291055;33;20033;-77
2023/06/28 14:18:53;;;;;;;1.20;1.20;;;;;;;;;;4291467;33;20053;-76
2023/06/28 14:21:19;;;;;;;1.08;1.08;;;;;;;;;;4295754;33;20060;-76
2023/06/28 14:23:45;;;;;;;0.98;0.98;;;;;;;;;;4320885;33;20094;-76
2023/06/28 14:26:11;;;;;;;1.27;1.17;;;;;;;;;;4318934;33;20773;-76
2023/06/28 14:28:38;;;;;;;3.12;1.35;;;;;;;;;;4323165;33;20459;-76
2023/06/28 14:31:04;;;;;;;1.60;1.60;;;;;;;;;;4322766;33;20092;-76
2023/06/28 14:33:30;;;;;;;1.62;1.52;;;;;;;;;;4294445;33;20079;-76
2023/06/28 14:35:56;;;;;;;1.60;1.50;;;;;;;;;;4313478;33;20517;-76
2023/06/28 14:38:22;;;;;;;1.83;1.73;;;;;;;;;;4318964;33;20196;-76
2023/06/28 14:40:49;;;;;;;1.58;1.50;;;;;;;;;;4323183;33;20106;-77
2023/06/28 14:43:16;;;;;;;1.42;1.42;;;;;;;;;;4322374;33;20065;-77
2023/06/28 14:45:42;;;;;;;1.80;1.77;;;;;;;;;;4320854;33;20688;-76
2023/06/28 14:48:09;;;;;;;2.03;1.90;;;;;;;;;;4322771;33;20083;-76
2023/06/28 14:50:35;;;;;;;1.62;1.52;;;;;;;;;;4322999;33;20132;-76
2023/06/28 14:53:01;;;;;;;2.10;1.92;;;;;;;;;;4322663;33;20533;-76
2023/06/28 14:55:27;;;;;;;2.25;2.08;;;;;;;;;;4321108;33;20108;-76
2023/06/28 14:57:54;;;;;;;2.55;2.00;;;;;;;;;;4322150;33;20318;-76
2023/06/28 15:00:20;;;;;;;2.85;2.65;;;;;;;;;;4322369;33;20094;-76
2023/06/28 15:02:46;;;;;;;2.62;2.42;;;;;;;;;;4323006;33;20433;-76
2023/06/28 15:05:12;;;;;;;4.30;4.00;;;;;;;;;;4323079;33;20052;-75
2023/06/28 15:07:38;;;;;;;4.80;3.70;;;;;;;;;;4320319;33;20444;-75
2023/06/28 15:10:05;;;;;;;5.75;4.87;;;;;;;;;;4325543;32;20078;-76
2023/06/28 15:12:31;;;;;;;8.30;5.25;;;;;;;;;;4353940;32;20048;-76
2023/06/28 15:14:57;;;;;;;13.38;6.85;;;;;;;;;;4367154;32;20449;-76
2023/06/28 15:17:23;;;;;;;11.88;6.93;;;;;;;;;;4356928;32;20325;-76
2023/06/28 15:19:49;;;;;;;10.68;6.37;;;;;;;;;;4347122;32;20107;-77
2023/06/28 15:22:16;;;;;;;14.57;7.70;;;;;;;;;;4343771;33;20058;-74
2023/06/28 15:24:43;;;;;;;12.52;7.68;;;;;;;;;;4329506;33;20090;-74
2023/06/28 15:27:09;;;;;;;10.73;8.13;;;;;;;;;;4336243;33;20495;-75
2023/06/28 15:29:35;;;;;;;11.05;7.78;;;;;;;;;;4331687;33;20099;-77
2023/06/28 15:32:08;;;;;;;8.52;6.97;;;;;;;;;;4321564;33;20078;-74
2023/06/28 15:34:34;;;;;;;8.98;7.45;;;;;;;;;;4323472;33;20151;-74
2023/06/28 15:37:00;;;;;;;12.13;7.12;;;;;;;;;;4323412;33;20484;-75
2023/06/28 15:39:27;;;;;;;11.43;7.87;;;;;;;;;;4323043;33;20040;-75
2023/06/28 15:41:53;;;;;;;10.60;7.68;;;;;;;;;;4323173;33;20091;-76
2023/06/28 15:44:19;;;;;;;8.98;7.12;;;;;;;;;;4321047;33;20531;-76
2023/06/28 15:46:47;;;;;;;8.65;6.30;;;;;;;;;;4323597;33;20064;-76
2023/06/28 15:49:13;;;;;;;12.27;6.05;;;;;;;;;;4333254;33;20057;-75
2023/06/28 15:51:39;;;;;;;10.82;5.70;;;;;;;;;;4343569;32;20082;-75
2023/06/28 15:54:06;;;;;;;10.32;6.50;;;;;;;;;;4352759;32;20454;-75
2023/06/28 15:56:32;;;;;;;10.70;7.15;;;;;;;;;;4345038;32;20064;-76
2023/06/28 15:58:58;;;;;;;6.80;5.65;;;;;;;;;;4354106;32;20048;-75
2023/06/28 16:01:24;;;;;;;8.40;7.15;;;;;;;;;;4356455;32;20047;-75
2023/06/28 16:03:50;;;;;;;7.22;5.90;;;;;;;;;;4361235;32;20043;-75
2023/06/28 16:06:17;;;;;;;6.18;5.57;;;;;;;;;;4356197;32;20048;-75
2023/06/28 16:08:42;;;;;;;8.77;5.32;;;;;;;;;;4368056;32;20336;-76
2023/06/28 16:11:09;;;;;;;9.73;5.72;;;;;;;;;;4367675;32;20476;-75
2023/06/28 16:13:35;;;;;;;6.00;5.12;;;;;;;;;;4336554;33;20090;-76
2023/06/28 16:16:04;;;;;;;8.07;5.35;;;;;;;;;;4334731;33;20417;-76
2023/06/28 16:18:30;;;;;;;7.78;5.78;;;;;;;;;;4335734;33;20461;-75
2023/06/28 16:20:57;;;;;;;7.18;4.65;;;;;;;;;;4335305;33;20052;-75
2023/06/28 16:23:23;;;;;;;5.93;5.32;;;;;;;;;;4335083;33;20056;-76
2023/06/28 16:25:49;;;;;;;8.23;5.25;;;;;;;;;;4320395;33;20095;-75
2023/06/28 16:31:56;;;;;;;6.28;5.22;;;;;;;;;;4313983;33;20051;-75
2023/06/28 16:34:22;;;;;;;7.60;5.95;;;;;;;;;;4322315;33;20044;-74
2023/06/28 16:36:48;;;;;;;7.03;5.85;;;;;;;;;;4321997;33;20515;-76
2023/06/28 16:39:14;;;;;;;6.95;5.37;;;;;;;;;;4320883;33;20062;-75
2023/06/28 16:41:40;;;;;;;5.70;5.05;;;;;;;;;;4317141;33;20056;-75
2023/06/28 16:44:07;;;;;;;5.55;5.05;;;;;;;;;;4322774;32;20817;-75
2023/06/28 16:46:33;;;;;;;7.57;5.45;;;;;;;;;;4336425;32;20032;-75